sensor_id;sensor_type;location;lat;lon;timestamp;P1;durP1;ratioP1;P2;durP2;ratioP2
18881;SDS011;9573;50.948;11.600;2023-04-03T00:00:40;8.50;;;2.47;;
18881;SDS011;9573;50.948;11.600;2023-04-03T00:03:07;10.90;;;2.20;;
18881;SDS011;9573;50.948;11.600;2023-04-03T00:05:34;14.73;;;2.90;;
18881;SDS011;9573;50.948;11.600;2023-04-03T00:08:01;12.30;;;2.50;;
18881;SDS011;9573;50.948;11.600;2023-04-03T00:10:31;10.43;;;2.40;;
18881;SDS011;9573;50.948;11.600;2023-04-03T00:12:58;8.73;;;2.13;;
18881;SDS011;9573;50.948;11.600;2023-04-03T00:15:25;10.37;;;2.33;;
18881;SDS011;9573;50.948;11.600;2023-04-03T00:17:52;8.90;;;2.67;;
18881;SDS011;9573;50.948;11.600;2023-04-03T00:20:19;12.73;;;2.23;;
18881;SDS011;9573;50.948;11.600;2023-04-03T00:22:46;9.57;;;2.40;;
18881;SDS011;9573;50.948;11.600;2023-04-03T00:25:13;9.83;;;2.40;;
18881;SDS011;9573;50.948;11.600;2023-04-03T00:27:42;11.13;;;2.80;;
18881;SDS011;9573;50.948;11.600;2023-04-03T00:30:10;9.43;;;2.60;;
18881;SDS011;9573;50.948;11.600;2023-04-03T00:32:40;13.43;;;2.67;;
18881;SDS011;9573;50.948;11.600;2023-04-03T00:35:08;9.10;;;2.40;;
18881;SDS011;9573;50.948;11.600;2023-04-03T00:37:36;9.17;;;2.60;;
18881;SDS011;9573;50.948;11.600;2023-04-03T00:40:04;8.63;;;2.53;;
18881;SDS011;9573;50.948;11.600;2023-04-03T00:42:33;13.10;;;3.03;;
18881;SDS011;9573;50.948;11.600;2023-04-03T00:48:03;13.13;;;2.90;;
18881;SDS011;9573;50.948;11.600;2023-04-03T00:50:33;13.73;;;2.77;;
18881;SDS011;9573;50.948;11.600;2023-04-03T00:53:03;10.10;;;3.03;;
18881;SDS011;9573;50.948;11.600;2023-04-03T00:55:32;13.23;;;3.10;;
18881;SDS011;9573;50.948;11.600;2023-04-03T00:58:02;10.13;;;2.80;;
18881;SDS011;9573;50.948;11.600;2023-04-03T01:00:30;14.67;;;3.30;;
18881;SDS011;9573;50.948;11.600;2023-04-03T01:02:58;11.70;;;3.00;;
18881;SDS011;9573;50.948;11.600;2023-04-03T01:05:26;15.73;;;3.20;;
18881;SDS011;9573;50.948;11.600;2023-04-03T01:07:53;12.37;;;3.30;;
18881;SDS011;9573;50.948;11.600;2023-04-03T01:10:21;12.53;;;2.90;;
18881;SDS011;9573;50.948;11.600;2023-04-03T01:12:50;16.83;;;3.47;;
18881;SDS011;9573;50.948;11.600;2023-04-03T01:15:18;12.17;;;3.43;;
18881;SDS011;9573;50.948;11.600;2023-04-03T01:17:50;13.23;;;3.40;;
18881;SDS011;9573;50.948;11.600;2023-04-03T01:20:36;14.60;;;4.20;;
18881;SDS011;9573;50.948;11.600;2023-04-03T01:23:55;17.30;;;3.33;;
18881;SDS011;9573;50.948;11.600;2023-04-03T01:26:34;7.13;;;2.80;;
18881;SDS011;9573;50.948;11.600;2023-04-03T01:29:02;15.40;;;3.03;;
18881;SDS011;9573;50.948;11.600;2023-04-03T01:31:31;17.00;;;3.40;;
18881;SDS011;9573;50.948;11.600;2023-04-03T01:34:11;13.93;;;3.80;;
18881;SDS011;9573;50.948;11.600;2023-04-03T01:36:38;16.57;;;3.73;;
18881;SDS011;9573;50.948;11.600;2023-04-03T01:39:06;12.60;;;3.33;;
18881;SDS011;9573;50.948;11.600;2023-04-03T01:41:33;9.23;;;2.80;;
18881;SDS011;9573;50.948;11.600;2023-04-03T01:44:00;12.63;;;3.27;;
18881;SDS011;9573;50.948;11.600;2023-04-03T01:46:28;11.30;;;2.90;;
18881;SDS011;9573;50.948;11.600;2023-04-03T01:48:57;11.93;;;2.90;;
18881;SDS011;9573;50.948;11.600;2023-04-03T01:51:24;13.07;;;2.80;;
18881;SDS011;9573;50.948;11.600;2023-04-03T01:53:51;14.63;;;2.63;;
18881;SDS011;9573;50.948;11.600;2023-04-03T01:56:18;11.33;;;2.80;;
18881;SDS011;9573;50.948;11.600;2023-04-03T01:58:46;12.63;;;2.57;;
18881;SDS011;9573;50.948;11.600;2023-04-03T02:01:13;13.87;;;2.97;;
18881;SDS011;9573;50.948;11.600;2023-04-03T02:03:41;9.77;;;2.60;;
18881;SDS011;9573;50.948;11.600;2023-04-03T02:06:09;14.67;;;2.80;;
18881;SDS011;9573;50.948;11.600;2023-04-03T02:08:36;11.70;;;2.63;;
18881;SDS011;9573;50.948;11.600;2023-04-03T02:11:03;12.53;;;2.60;;
18881;SDS011;9573;50.948;11.600;2023-04-03T02:13:31;10.23;;;2.60;;
18881;SDS011;9573;50.948;11.600;2023-04-03T02:15:58;13.80;;;2.70;;
18881;SDS011;9573;50.948;11.600;2023-04-03T02:18:25;13.50;;;2.97;;
18881;SDS011;9573;50.948;11.600;2023-04-03T02:20:52;11.40;;;2.80;;
18881;SDS011;9573;50.948;11.600;2023-04-03T02:23:20;17.07;;;3.20;;
18881;SDS011;9573;50.948;11.600;2023-04-03T02:25:47;13.33;;;3.00;;
18881;SDS011;9573;50.948;11.600;2023-04-03T02:28:15;12.23;;;2.90;;
18881;SDS011;9573;50.948;11.600;2023-04-03T02:30:42;16.30;;;3.33;;
18881;SDS011;9573;50.948;11.600;2023-04-03T02:33:09;17.10;;;3.57;;
18881;SDS011;9573;50.948;11.600;2023-04-03T02:35:36;15.43;;;3.17;;
18881;SDS011;9573;50.948;11.600;2023-04-03T02:38:06;13.03;;;3.10;;
18881;SDS011;9573;50.948;11.600;2023-04-03T02:40:34;18.43;;;3.63;;
18881;SDS011;9573;50.948;11.600;2023-04-03T02:43:01;16.33;;;3.70;;
18881;SDS011;9573;50.948;11.600;2023-04-03T02:45:28;15.33;;;3.50;;
18881;SDS011;9573;50.948;11.600;2023-04-03T02:47:55;17.30;;;4.10;;
18881;SDS011;9573;50.948;11.600;2023-04-03T02:50:22;18.13;;;4.30;;
18881;SDS011;9573;50.948;11.600;2023-04-03T02:52:49;16.30;;;4.17;;
18881;SDS011;9573;50.948;11.600;2023-04-03T02:55:16;18.30;;;4.20;;
18881;SDS011;9573;50.948;11.600;2023-04-03T02:57:45;21.67;;;3.80;;
18881;SDS011;9573;50.948;11.600;2023-04-03T03:00:12;17.63;;;4.20;;
18881;SDS011;9573;50.948;11.600;2023-04-03T03:02:40;21.03;;;3.90;;
18881;SDS011;9573;50.948;11.600;2023-04-03T03:05:08;16.00;;;3.47;;
18881;SDS011;9573;50.948;11.600;2023-04-03T03:07:35;18.83;;;4.00;;
18881;SDS011;9573;50.948;11.600;2023-04-03T03:10:02;12.80;;;3.63;;
18881;SDS011;9573;50.948;11.600;2023-04-03T03:12:30;19.47;;;3.30;;
18881;SDS011;9573;50.948;11.600;2023-04-03T03:14:58;17.10;;;3.73;;
18881;SDS011;9573;50.948;11.600;2023-04-03T03:17:25;14.63;;;3.37;;
18881;SDS011;9573;50.948;11.600;2023-04-03T03:19:53;18.57;;;3.60;;
18881;SDS011;9573;50.948;11.600;2023-04-03T03:22:20;14.13;;;3.30;;
18881;SDS011;9573;50.948;11.600;2023-04-03T03:24:47;18.00;;;3.77;;
18881;SDS011;9573;50.948;11.600;2023-04-03T03:27:14;19.00;;;4.00;;
18881;SDS011;9573;50.948;11.600;2023-04-03T03:29:41;16.00;;;3.73;;
18881;SDS011;9573;50.948;11.600;2023-04-03T03:32:10;15.27;;;2.80;;
18881;SDS011;9573;50.948;11.600;2023-04-03T03:34:37;16.33;;;3.37;;
18881;SDS011;9573;50.948;11.600;2023-04-03T03:37:04;15.50;;;3.30;;
18881;SDS011;9573;50.948;11.600;2023-04-03T03:39:31;11.60;;;3.23;;
18881;SDS011;9573;50.948;11.600;2023-04-03T03:41:58;16.80;;;3.87;;
18881;SDS011;9573;50.948;11.600;2023-04-03T03:44:25;13.80;;;3.03;;
18881;SDS011;9573;50.948;11.600;2023-04-03T03:46:54;15.57;;;3.30;;
18881;SDS011;9573;50.948;11.600;2023-04-03T03:49:22;13.03;;;3.00;;
18881;SDS011;9573;50.948;11.600;2023-04-03T03:51:49;13.63;;;3.40;;
18881;SDS011;9573;50.948;11.600;2023-04-03T03:54:17;15.73;;;3.03;;
18881;SDS011;9573;50.948;11.600;2023-04-03T03:56:44;10.20;;;2.80;;
18881;SDS011;9573;50.948;11.600;2023-04-03T03:59:11;14.90;;;3.43;;
18881;SDS011;9573;50.948;11.600;2023-04-03T04:01:38;13.60;;;2.80;;
18881;SDS011;9573;50.948;11.600;2023-04-03T04:04:05;14.87;;;3.00;;
18881;SDS011;9573;50.948;11.600;2023-04-03T04:06:34;17.60;;;3.00;;
18881;SDS011;9573;50.948;11.600;2023-04-03T04:09:01;11.23;;;2.63;;
18881;SDS011;9573;50.948;11.600;2023-04-03T04:11:28;14.40;;;3.07;;
18881;SDS011;9573;50.948;11.600;2023-04-03T04:13:55;14.83;;;3.17;;
18881;SDS011;9573;50.948;11.600;2023-04-03T04:16:22;16.53;;;3.40;;
18881;SDS011;9573;50.948;11.600;2023-04-03T04:18:49;14.30;;;3.30;;
18881;SDS011;9573;50.948;11.600;2023-04-03T04:21:16;13.67;;;3.20;;
18881;SDS011;9573;50.948;11.600;2023-04-03T04:23:45;9.93;;;2.90;;
18881;SDS011;9573;50.948;11.600;2023-04-03T04:26:13;15.13;;;3.10;;
18881;SDS011;9573;50.948;11.600;2023-04-03T04:28:40;14.73;;;2.87;;
18881;SDS011;9573;50.948;11.600;2023-04-03T04:31:07;11.00;;;3.00;;
18881;SDS011;9573;50.948;11.600;2023-04-03T04:33:34;11.40;;;3.13;;
18881;SDS011;9573;50.948;11.600;2023-04-03T04:36:01;13.00;;;3.10;;
18881;SDS011;9573;50.948;11.600;2023-04-03T04:38:28;14.83;;;2.87;;
18881;SDS011;9573;50.948;11.600;2023-04-03T04:40:57;11.33;;;2.63;;
18881;SDS011;9573;50.948;11.600;2023-04-03T04:43:24;11.33;;;3.00;;
18881;SDS011;9573;50.948;11.600;2023-04-03T04:45:59;16.00;;;3.23;;
18881;SDS011;9573;50.948;11.600;2023-04-03T04:48:28;12.60;;;3.70;;
18881;SDS011;9573;50.948;11.600;2023-04-03T04:50:55;15.37;;;3.33;;
18881;SDS011;9573;50.948;11.600;2023-04-03T04:53:22;13.33;;;3.20;;
18881;SDS011;9573;50.948;11.600;2023-04-03T04:55:49;16.73;;;3.30;;
18881;SDS011;9573;50.948;11.600;2023-04-03T04:58:18;18.53;;;4.00;;
18881;SDS011;9573;50.948;11.600;2023-04-03T05:00:45;14.60;;;3.90;;
18881;SDS011;9573;50.948;11.600;2023-04-03T05:03:13;18.00;;;4.30;;
18881;SDS011;9573;50.948;11.600;2023-04-03T05:05:40;15.93;;;3.87;;
18881;SDS011;9573;50.948;11.600;2023-04-03T05:08:07;18.57;;;4.20;;
18881;SDS011;9573;50.948;11.600;2023-04-03T05:10:35;18.03;;;4.33;;
18881;SDS011;9573;50.948;11.600;2023-04-03T05:13:02;21.87;;;4.10;;
18881;SDS011;9573;50.948;11.600;2023-04-03T05:15:30;16.43;;;3.90;;
18881;SDS011;9573;50.948;11.600;2023-04-03T05:17:57;14.47;;;4.23;;
18881;SDS011;9573;50.948;11.600;2023-04-03T05:20:24;14.43;;;3.33;;
18881;SDS011;9573;50.948;11.600;2023-04-03T05:22:51;16.03;;;4.07;;
18881;SDS011;9573;50.948;11.600;2023-04-03T05:25:18;17.87;;;3.83;;
18881;SDS011;9573;50.948;11.600;2023-04-03T05:27:45;17.17;;;3.90;;
18881;SDS011;9573;50.948;11.600;2023-04-03T05:30:13;16.97;;;4.20;;
18881;SDS011;9573;50.948;11.600;2023-04-03T05:32:41;17.10;;;4.20;;
18881;SDS011;9573;50.948;11.600;2023-04-03T05:35:09;30.70;;;4.53;;
18881;SDS011;9573;50.948;11.600;2023-04-03T05:37:36;16.30;;;3.43;;
18881;SDS011;9573;50.948;11.600;2023-04-03T05:40:04;12.33;;;3.50;;
18881;SDS011;9573;50.948;11.600;2023-04-03T05:42:32;17.17;;;4.20;;
18881;SDS011;9573;50.948;11.600;2023-04-03T05:44:59;21.43;;;4.13;;
18881;SDS011;9573;50.948;11.600;2023-04-03T05:47:27;17.13;;;4.27;;
18881;SDS011;9573;50.948;11.600;2023-04-03T05:49:55;14.07;;;3.60;;
18881;SDS011;9573;50.948;11.600;2023-04-03T05:52:23;14.77;;;4.53;;
18881;SDS011;9573;50.948;11.600;2023-04-03T05:54:55;18.03;;;3.87;;
18881;SDS011;9573;50.948;11.600;2023-04-03T05:57:22;17.80;;;3.70;;
18881;SDS011;9573;50.948;11.600;2023-04-03T05:59:49;13.17;;;3.33;;
18881;SDS011;9573;50.948;11.600;2023-04-03T06:02:18;14.63;;;3.73;;
18881;SDS011;9573;50.948;11.600;2023-04-03T06:04:47;14.67;;;3.50;;
18881;SDS011;9573;50.948;11.600;2023-04-03T06:07:17;14.37;;;3.30;;
18881;SDS011;9573;50.948;11.600;2023-04-03T06:09:47;14.20;;;3.30;;
18881;SDS011;9573;50.948;11.600;2023-04-03T06:12:16;13.47;;;3.17;;
18881;SDS011;9573;50.948;11.600;2023-04-03T06:14:44;11.27;;;2.70;;
18881;SDS011;9573;50.948;11.600;2023-04-03T06:17:11;11.67;;;3.30;;
18881;SDS011;9573;50.948;11.600;2023-04-03T06:19:38;11.90;;;3.17;;
18881;SDS011;9573;50.948;11.600;2023-04-03T06:22:06;11.10;;;3.27;;
18881;SDS011;9573;50.948;11.600;2023-04-03T06:24:34;9.87;;;3.07;;
18881;SDS011;9573;50.948;11.600;2023-04-03T06:27:02;14.20;;;3.10;;
18881;SDS011;9573;50.948;11.600;2023-04-03T06:29:29;17.27;;;3.20;;
18881;SDS011;9573;50.948;11.600;2023-04-03T06:31:56;9.80;;;2.90;;
18881;SDS011;9573;50.948;11.600;2023-04-03T06:34:24;10.87;;;2.90;;
18881;SDS011;9573;50.948;11.600;2023-04-03T06:36:51;10.73;;;3.40;;
18881;SDS011;9573;50.948;11.600;2023-04-03T06:39:19;8.57;;;2.70;;
18881;SDS011;9573;50.948;11.600;2023-04-03T06:41:49;11.57;;;3.07;;
18881;SDS011;9573;50.948;11.600;2023-04-03T06:44:17;10.60;;;2.97;;
18881;SDS011;9573;50.948;11.600;2023-04-03T06:46:44;13.70;;;2.87;;
18881;SDS011;9573;50.948;11.600;2023-04-03T06:49:12;12.90;;;3.10;;
18881;SDS011;9573;50.948;11.600;2023-04-03T06:51:40;19.47;;;3.90;;
18881;SDS011;9573;50.948;11.600;2023-04-03T06:54:07;18.00;;;3.20;;
18881;SDS011;9573;50.948;11.600;2023-04-03T06:56:34;22.53;;;3.53;;
18881;SDS011;9573;50.948;11.600;2023-04-03T06:59:03;29.40;;;4.73;;
18881;SDS011;9573;50.948;11.600;2023-04-03T07:01:32;13.83;;;3.90;;
18881;SDS011;9573;50.948;11.600;2023-04-03T07:03:59;19.00;;;3.97;;
18881;SDS011;9573;50.948;11.600;2023-04-03T07:06:32;17.67;;;4.60;;
18881;SDS011;9573;50.948;11.600;2023-04-03T07:09:00;22.87;;;5.03;;
18881;SDS011;9573;50.948;11.600;2023-04-03T07:11:28;22.73;;;5.23;;
18881;SDS011;9573;50.948;11.600;2023-04-03T07:13:55;22.83;;;6.00;;
18881;SDS011;9573;50.948;11.600;2023-04-03T07:16:24;23.67;;;6.00;;
18881;SDS011;9573;50.948;11.600;2023-04-03T07:18:51;31.47;;;7.60;;
18881;SDS011;9573;50.948;11.600;2023-04-03T07:21:18;25.17;;;6.80;;
18881;SDS011;9573;50.948;11.600;2023-04-03T07:23:45;22.00;;;6.23;;
18881;SDS011;9573;50.948;11.600;2023-04-03T07:26:12;20.93;;;5.23;;
18881;SDS011;9573;50.948;11.600;2023-04-03T07:28:39;25.93;;;5.97;;
18881;SDS011;9573;50.948;11.600;2023-04-03T07:31:07;24.80;;;6.87;;
18881;SDS011;9573;50.948;11.600;2023-04-03T07:33:39;23.13;;;6.13;;
18881;SDS011;9573;50.948;11.600;2023-04-03T07:36:07;23.50;;;5.80;;
18881;SDS011;9573;50.948;11.600;2023-04-03T07:38:36;20.73;;;5.97;;
18881;SDS011;9573;50.948;11.600;2023-04-03T07:41:04;24.00;;;6.27;;
18881;SDS011;9573;50.948;11.600;2023-04-03T07:43:31;25.37;;;7.10;;
18881;SDS011;9573;50.948;11.600;2023-04-03T07:45:59;20.43;;;5.50;;
18881;SDS011;9573;50.948;11.600;2023-04-03T07:48:26;20.60;;;5.17;;
18881;SDS011;9573;50.948;11.600;2023-04-03T07:50:58;22.33;;;5.73;;
18881;SDS011;9573;50.948;11.600;2023-04-03T07:53:26;20.03;;;5.87;;
18881;SDS011;9573;50.948;11.600;2023-04-03T07:55:53;18.67;;;5.27;;
18881;SDS011;9573;50.948;11.600;2023-04-03T07:58:21;17.97;;;5.20;;
18881;SDS011;9573;50.948;11.600;2023-04-03T08:00:49;18.83;;;5.87;;
18881;SDS011;9573;50.948;11.600;2023-04-03T08:03:16;15.50;;;5.00;;
18881;SDS011;9573;50.948;11.600;2023-04-03T08:05:44;21.27;;;5.77;;
18881;SDS011;9573;50.948;11.600;2023-04-03T08:08:15;16.43;;;5.07;;
18881;SDS011;9573;50.948;11.600;2023-04-03T08:10:47;16.50;;;4.93;;
18881;SDS011;9573;50.948;11.600;2023-04-03T08:13:16;17.73;;;5.17;;
18881;SDS011;9573;50.948;11.600;2023-04-03T08:15:43;17.87;;;5.20;;
18881;SDS011;9573;50.948;11.600;2023-04-03T08:18:10;15.07;;;4.70;;
18881;SDS011;9573;50.948;11.600;2023-04-03T08:20:38;16.07;;;4.87;;
18881;SDS011;9573;50.948;11.600;2023-04-03T08:23:06;17.53;;;4.93;;
18881;SDS011;9573;50.948;11.600;2023-04-03T08:25:37;18.73;;;4.30;;
18881;SDS011;9573;50.948;11.600;2023-04-03T08:28:04;15.23;;;4.50;;
18881;SDS011;9573;50.948;11.600;2023-04-03T08:30:31;14.93;;;4.20;;
18881;SDS011;9573;50.948;11.600;2023-04-03T08:33:00;15.80;;;4.10;;
18881;SDS011;9573;50.948;11.600;2023-04-03T08:35:27;10.73;;;3.73;;
18881;SDS011;9573;50.948;11.600;2023-04-03T08:37:55;11.50;;;3.47;;
18881;SDS011;9573;50.948;11.600;2023-04-03T08:40:22;12.10;;;3.80;;
18881;SDS011;9573;50.948;11.600;2023-04-03T08:42:53;13.47;;;3.90;;
18881;SDS011;9573;50.948;11.600;2023-04-03T08:45:37;9.87;;;3.63;;
18881;SDS011;9573;50.948;11.600;2023-04-03T08:48:12;12.63;;;3.97;;
18881;SDS011;9573;50.948;11.600;2023-04-03T08:50:45;12.27;;;3.77;;
18881;SDS011;9573;50.948;11.600;2023-04-03T08:53:16;12.27;;;4.00;;
18881;SDS011;9573;50.948;11.600;2023-04-03T08:55:46;15.07;;;4.33;;
18881;SDS011;9573;50.948;11.600;2023-04-03T08:58:18;13.00;;;3.73;;
18881;SDS011;9573;50.948;11.600;2023-04-03T09:00:48;14.97;;;4.53;;
18881;SDS011;9573;50.948;11.600;2023-04-03T09:03:18;15.13;;;4.07;;
18881;SDS011;9573;50.948;11.600;2023-04-03T09:05:48;10.40;;;3.53;;
18881;SDS011;9573;50.948;11.600;2023-04-03T09:08:23;13.10;;;3.70;;
18881;SDS011;9573;50.948;11.600;2023-04-03T09:10:58;16.43;;;4.13;;
18881;SDS011;9573;50.948;11.600;2023-04-03T09:13:39;9.97;;;3.47;;
18881;SDS011;9573;50.948;11.600;2023-04-03T09:16:17;11.07;;;3.40;;
18881;SDS011;9573;50.948;11.600;2023-04-03T09:18:56;12.70;;;3.73;;
18881;SDS011;9573;50.948;11.600;2023-04-03T09:21:31;14.13;;;3.50;;
18881;SDS011;9573;50.948;11.600;2023-04-03T09:24:04;9.63;;;3.00;;
18881;SDS011;9573;50.948;11.600;2023-04-03T09:26:33;8.20;;;3.10;;
18881;SDS011;9573;50.948;11.600;2023-04-03T09:29:07;7.73;;;2.83;;
18881;SDS011;9573;50.948;11.600;2023-04-03T09:31:36;7.07;;;2.83;;
18881;SDS011;9573;50.948;11.600;2023-04-03T09:34:06;10.00;;;2.70;;
18881;SDS011;9573;50.948;11.600;2023-04-03T09:36:43;6.77;;;2.40;;
18881;SDS011;9573;50.948;11.600;2023-04-03T09:39:14;11.90;;;2.60;;
18881;SDS011;9573;50.948;11.600;2023-04-03T09:41:54;6.40;;;2.43;;
18881;SDS011;9573;50.948;11.600;2023-04-03T09:44:27;8.53;;;2.43;;
18881;SDS011;9573;50.948;11.600;2023-04-03T09:46:56;6.17;;;1.97;;
18881;SDS011;9573;50.948;11.600;2023-04-03T09:49:24;8.43;;;2.20;;
18881;SDS011;9573;50.948;11.600;2023-04-03T09:51:51;8.13;;;2.17;;
18881;SDS011;9573;50.948;11.600;2023-04-03T09:57:10;6.20;;;1.70;;
18881;SDS011;9573;50.948;11.600;2023-04-03T09:59:42;7.30;;;2.00;;
18881;SDS011;9573;50.948;11.600;2023-04-03T10:02:21;4.47;;;1.50;;
18881;SDS011;9573;50.948;11.600;2023-04-03T10:04:57;5.33;;;1.60;;
18881;SDS011;9573;50.948;11.600;2023-04-03T10:07:29;2.73;;;1.30;;
18881;SDS011;9573;50.948;11.600;2023-04-03T10:10:00;5.90;;;1.60;;
18881;SDS011;9573;50.948;11.600;2023-04-03T10:12:37;5.37;;;1.50;;
18881;SDS011;9573;50.948;11.600;2023-04-03T10:15:12;6.27;;;1.60;;
18881;SDS011;9573;50.948;11.600;2023-04-03T10:17:46;6.90;;;1.93;;
18881;SDS011;9573;50.948;11.600;2023-04-03T10:20:24;10.37;;;2.10;;
18881;SDS011;9573;50.948;11.600;2023-04-03T10:23:12;4.57;;;1.80;;
18881;SDS011;9573;50.948;11.600;2023-04-03T10:25:47;7.00;;;1.57;;
18881;SDS011;9573;50.948;11.600;2023-04-03T10:28:29;6.73;;;1.80;;
18881;SDS011;9573;50.948;11.600;2023-04-03T10:31:06;7.33;;;1.80;;
18881;SDS011;9573;50.948;11.600;2023-04-03T10:33:45;6.33;;;1.63;;
18881;SDS011;9573;50.948;11.600;2023-04-03T10:36:25;6.60;;;1.60;;
18881;SDS011;9573;50.948;11.600;2023-04-03T10:39:04;4.03;;;1.57;;
18881;SDS011;9573;50.948;11.600;2023-04-03T10:41:46;4.40;;;1.73;;
18881;SDS011;9573;50.948;11.600;2023-04-03T10:44:30;3.20;;;1.63;;
18881;SDS011;9573;50.948;11.600;2023-04-03T10:47:11;11.50;;;2.87;;
18881;SDS011;9573;50.948;11.600;2023-04-03T10:49:48;4.77;;;1.80;;
18881;SDS011;9573;50.948;11.600;2023-04-03T10:52:23;7.50;;;1.90;;
18881;SDS011;9573;50.948;11.600;2023-04-03T10:55:01;6.13;;;1.70;;
18881;SDS011;9573;50.948;11.600;2023-04-03T10:57:36;7.00;;;1.80;;
18881;SDS011;9573;50.948;11.600;2023-04-03T11:00:13;8.30;;;2.13;;
18881;SDS011;9573;50.948;11.600;2023-04-03T11:02:48;9.40;;;1.83;;
18881;SDS011;9573;50.948;11.600;2023-04-03T11:05:21;5.07;;;1.90;;
18881;SDS011;9573;50.948;11.600;2023-04-03T11:07:57;7.50;;;1.97;;
18881;SDS011;9573;50.948;11.600;2023-04-03T11:10:33;10.53;;;2.17;;
18881;SDS011;9573;50.948;11.600;2023-04-03T11:13:07;10.63;;;2.03;;
18881;SDS011;9573;50.948;11.600;2023-04-03T11:15:40;8.20;;;2.00;;
18881;SDS011;9573;50.948;11.600;2023-04-03T11:18:11;8.20;;;2.23;;
18881;SDS011;9573;50.948;11.600;2023-04-03T11:20:44;7.43;;;1.80;;
18881;SDS011;9573;50.948;11.600;2023-04-03T11:23:20;6.77;;;2.17;;
18881;SDS011;9573;50.948;11.600;2023-04-03T11:25:53;10.73;;;2.20;;
18881;SDS011;9573;50.948;11.600;2023-04-03T11:28:28;6.10;;;2.03;;
18881;SDS011;9573;50.948;11.600;2023-04-03T11:30:57;5.03;;;2.00;;
18881;SDS011;9573;50.948;11.600;2023-04-03T11:33:42;7.53;;;2.30;;
18881;SDS011;9573;50.948;11.600;2023-04-03T11:36:19;3.60;;;1.90;;
18881;SDS011;9573;50.948;11.600;2023-04-03T11:38:51;9.70;;;2.00;;
18881;SDS011;9573;50.948;11.600;2023-04-03T11:41:26;6.20;;;2.00;;
18881;SDS011;9573;50.948;11.600;2023-04-03T11:43:56;3.80;;;1.73;;
18881;SDS011;9573;50.948;11.600;2023-04-03T11:55:42;4.00;;;1.43;;
18881;SDS011;9573;50.948;11.600;2023-04-03T11:58:18;9.33;;;1.70;;
18881;SDS011;9573;50.948;11.600;2023-04-03T12:00:50;7.53;;;1.90;;
18881;SDS011;9573;50.948;11.600;2023-04-03T12:06:48;6.03;;;1.83;;
18881;SDS011;9573;50.948;11.600;2023-04-03T12:12:55;9.57;;;1.90;;
18881;SDS011;9573;50.948;11.600;2023-04-03T12:24:34;6.40;;;1.87;;
18881;SDS011;9573;50.948;11.600;2023-04-03T12:27:21;8.83;;;1.70;;
18881;SDS011;9573;50.948;11.600;2023-04-03T12:29:56;6.83;;;2.13;;
18881;SDS011;9573;50.948;11.600;2023-04-03T12:32:43;6.73;;;1.50;;
18881;SDS011;9573;50.948;11.600;2023-04-03T12:35:47;8.40;;;2.37;;
18881;SDS011;9573;50.948;11.600;2023-04-03T12:38:39;6.43;;;1.73;;
18881;SDS011;9573;50.948;11.600;2023-04-03T12:41:27;7.23;;;1.93;;
18881;SDS011;9573;50.948;11.600;2023-04-03T12:47:10;8.00;;;2.20;;
18881;SDS011;9573;50.948;11.600;2023-04-03T12:50:01;7.87;;;2.10;;
18881;SDS011;9573;50.948;11.600;2023-04-03T12:52:35;5.23;;;2.20;;
18881;SDS011;9573;50.948;11.600;2023-04-03T12:55:15;7.50;;;2.00;;
18881;SDS011;9573;50.948;11.600;2023-04-03T12:57:45;9.13;;;2.30;;
18881;SDS011;9573;50.948;11.600;2023-04-03T13:00:19;6.47;;;2.10;;
18881;SDS011;9573;50.948;11.600;2023-04-03T13:02:59;7.67;;;2.13;;
18881;SDS011;9573;50.948;11.600;2023-04-03T13:05:28;6.33;;;2.00;;
18881;SDS011;9573;50.948;11.600;2023-04-03T13:07:58;7.60;;;2.13;;
18881;SDS011;9573;50.948;11.600;2023-04-03T13:10:30;9.07;;;2.30;;
18881;SDS011;9573;50.948;11.600;2023-04-03T13:13:06;9.90;;;2.13;;
18881;SDS011;9573;50.948;11.600;2023-04-03T13:15:41;10.03;;;2.27;;
18881;SDS011;9573;50.948;11.600;2023-04-03T13:18:27;7.13;;;2.30;;
18881;SDS011;9573;50.948;11.600;2023-04-03T13:20:58;9.50;;;2.23;;
18881;SDS011;9573;50.948;11.600;2023-04-03T13:23:30;7.67;;;2.20;;
18881;SDS011;9573;50.948;11.600;2023-04-03T13:26:03;7.97;;;2.50;;
18881;SDS011;9573;50.948;11.600;2023-04-03T13:28:31;7.23;;;2.63;;
18881;SDS011;9573;50.948;11.600;2023-04-03T13:31:01;8.83;;;2.43;;
18881;SDS011;9573;50.948;11.600;2023-04-03T13:33:35;10.37;;;2.50;;
18881;SDS011;9573;50.948;11.600;2023-04-03T13:36:04;9.37;;;2.40;;
18881;SDS011;9573;50.948;11.600;2023-04-03T13:38:34;7.47;;;2.33;;
18881;SDS011;9573;50.948;11.600;2023-04-03T13:41:04;6.37;;;2.37;;
18881;SDS011;9573;50.948;11.600;2023-04-03T13:43:50;8.33;;;2.33;;
18881;SDS011;9573;50.948;11.600;2023-04-03T13:46:24;6.37;;;2.43;;
18881;SDS011;9573;50.948;11.600;2023-04-03T13:48:54;6.90;;;2.40;;
18881;SDS011;9573;50.948;11.600;2023-04-03T13:51:24;8.40;;;2.50;;
18881;SDS011;9573;50.948;11.600;2023-04-03T13:53:54;12.07;;;2.40;;
18881;SDS011;9573;50.948;11.600;2023-04-03T13:56:29;9.53;;;2.30;;
18881;SDS011;9573;50.948;11.600;2023-04-03T14:01:52;8.87;;;2.40;;
18881;SDS011;9573;50.948;11.600;2023-04-03T14:04:26;9.93;;;2.30;;
18881;SDS011;9573;50.948;11.600;2023-04-03T14:06:56;16.50;;;2.70;;
18881;SDS011;9573;50.948;11.600;2023-04-03T14:09:25;8.47;;;2.60;;
18881;SDS011;9573;50.948;11.600;2023-04-03T14:11:55;9.53;;;2.57;;
18881;SDS011;9573;50.948;11.600;2023-04-03T14:14:30;7.90;;;2.50;;
18881;SDS011;9573;50.948;11.600;2023-04-03T14:17:01;8.43;;;2.33;;
18881;SDS011;9573;50.948;11.600;2023-04-03T14:19:32;9.67;;;2.40;;
18881;SDS011;9573;50.948;11.600;2023-04-03T14:22:05;6.70;;;2.33;;
18881;SDS011;9573;50.948;11.600;2023-04-03T14:24:42;8.23;;;2.50;;
18881;SDS011;9573;50.948;11.600;2023-04-03T14:27:13;6.37;;;2.23;;
18881;SDS011;9573;50.948;11.600;2023-04-03T14:29:44;12.33;;;2.77;;
18881;SDS011;9573;50.948;11.600;2023-04-03T14:32:14;6.30;;;2.20;;
18881;SDS011;9573;50.948;11.600;2023-04-03T14:34:43;6.43;;;2.20;;
18881;SDS011;9573;50.948;11.600;2023-04-03T14:37:11;7.67;;;2.37;;
18881;SDS011;9573;50.948;11.600;2023-04-03T14:39:40;8.30;;;2.33;;
18881;SDS011;9573;50.948;11.600;2023-04-03T14:42:13;6.80;;;2.20;;
18881;SDS011;9573;50.948;11.600;2023-04-03T14:44:44;6.40;;;2.10;;
18881;SDS011;9573;50.948;11.600;2023-04-03T14:47:12;9.70;;;2.50;;
18881;SDS011;9573;50.948;11.600;2023-04-03T14:49:42;4.00;;;2.10;;
18881;SDS011;9573;50.948;11.600;2023-04-03T14:52:16;7.77;;;2.40;;
18881;SDS011;9573;50.948;11.600;2023-04-03T14:54:46;9.70;;;2.30;;
18881;SDS011;9573;50.948;11.600;2023-04-03T14:57:16;9.67;;;2.50;;
18881;SDS011;9573;50.948;11.600;2023-04-03T14:59:44;10.37;;;2.43;;
18881;SDS011;9573;50.948;11.600;2023-04-03T15:02:25;7.07;;;2.23;;
18881;SDS011;9573;50.948;11.600;2023-04-03T15:05:00;7.73;;;2.33;;
18881;SDS011;9573;50.948;11.600;2023-04-03T15:07:30;8.90;;;2.23;;
18881;SDS011;9573;50.948;11.600;2023-04-03T15:10:00;8.43;;;2.40;;
18881;SDS011;9573;50.948;11.600;2023-04-03T15:12:37;6.07;;;2.30;;
18881;SDS011;9573;50.948;11.600;2023-04-03T15:15:04;9.43;;;2.20;;
18881;SDS011;9573;50.948;11.600;2023-04-03T15:17:33;5.10;;;1.73;;
18881;SDS011;9573;50.948;11.600;2023-04-03T15:20:02;7.20;;;2.20;;
18881;SDS011;9573;50.948;11.600;2023-04-03T15:22:36;8.60;;;2.40;;
18881;SDS011;9573;50.948;11.600;2023-04-03T15:25:04;7.63;;;2.23;;
18881;SDS011;9573;50.948;11.600;2023-04-03T15:27:31;8.00;;;2.40;;
18881;SDS011;9573;50.948;11.600;2023-04-03T15:30:00;6.83;;;2.60;;
18881;SDS011;9573;50.948;11.600;2023-04-03T15:32:27;8.73;;;2.23;;
18881;SDS011;9573;50.948;11.600;2023-04-03T15:34:54;9.03;;;2.70;;
18881;SDS011;9573;50.948;11.600;2023-04-03T15:37:22;12.03;;;2.60;;